Volendam, Netherlands
Current Conditions -  °F | °C
As of 11:25 PM on Friday 24 Oct 2014 (Local Time) from EHAM Reporting Station
Light Rain Light Rain  
Wind Chill: 54°   Ceiling: 900
Heat Index: 54°   Visibility: 6mi
Dew Point: 54°   Wind: 13mph
Humidity: 100%   Direction: 190°S
Pressure: 29.97"   Gusts: NA
Location:  52.5°N, 5.07°E
Report Text: EHAM 242125Z 19011KT 9999 -RA FEW006 BKN009 12/12 Q1015 TEMPO7000
Loading
Personal Weather Stations






























Interactive Weather Map
Tropical Storm Tracking
New forecast layout! Learn more

10-Day Weather Forecast

Advertisements
Track Severe Weather on mobile